sensor_id;sensor_type;location;lat;lon;timestamp;P1;durP1;ratioP1;P2;durP2;ratioP2
17814;SDS011;9031;50.974;11.330;2023-02-04T00:00:14;1.00;;;1.00;;
17814;SDS011;9031;50.974;11.330;2023-02-04T00:02:42;0.50;;;0.50;;
17814;SDS011;9031;50.974;11.330;2023-02-04T00:05:07;0.77;;;0.77;;
17814;SDS011;9031;50.974;11.330;2023-02-04T00:07:33;0.50;;;0.50;;
17814;SDS011;9031;50.974;11.330;2023-02-04T00:09:59;0.50;;;0.50;;
17814;SDS011;9031;50.974;11.330;2023-02-04T00:12:24;0.57;;;0.57;;
17814;SDS011;9031;50.974;11.330;2023-02-04T00:14:50;0.60;;;0.60;;
17814;SDS011;9031;50.974;11.330;2023-02-04T00:17:15;0.60;;;0.60;;
17814;SDS011;9031;50.974;11.330;2023-02-04T00:19:41;0.50;;;0.50;;
17814;SDS011;9031;50.974;11.330;2023-02-04T00:22:07;0.70;;;0.70;;
17814;SDS011;9031;50.974;11.330;2023-02-04T00:24:34;0.60;;;0.60;;
17814;SDS011;9031;50.974;11.330;2023-02-04T00:27:01;0.60;;;0.60;;
17814;SDS011;9031;50.974;11.330;2023-02-04T00:29:26;0.60;;;0.60;;
17814;SDS011;9031;50.974;11.330;2023-02-04T00:31:52;0.73;;;0.73;;
17814;SDS011;9031;50.974;11.330;2023-02-04T00:34:17;0.67;;;0.67;;
17814;SDS011;9031;50.974;11.330;2023-02-04T00:36:43;0.60;;;0.60;;
17814;SDS011;9031;50.974;11.330;2023-02-04T00:39:09;0.50;;;0.50;;
17814;SDS011;9031;50.974;11.330;2023-02-04T00:41:35;0.70;;;0.70;;
17814;SDS011;9031;50.974;11.330;2023-02-04T00:44:00;0.60;;;0.60;;
17814;SDS011;9031;50.974;11.330;2023-02-04T00:46:26;0.73;;;0.73;;
17814;SDS011;9031;50.974;11.330;2023-02-04T00:48:51;0.63;;;0.63;;
17814;SDS011;9031;50.974;11.330;2023-02-04T00:51:17;0.60;;;0.60;;
17814;SDS011;9031;50.974;11.330;2023-02-04T00:53:42;0.60;;;0.60;;
17814;SDS011;9031;50.974;11.330;2023-02-04T00:56:08;0.60;;;0.60;;
17814;SDS011;9031;50.974;11.330;2023-02-04T00:58:33;0.70;;;0.70;;
17814;SDS011;9031;50.974;11.330;2023-02-04T01:00:59;0.70;;;0.70;;
17814;SDS011;9031;50.974;11.330;2023-02-04T01:03:24;0.60;;;0.60;;
17814;SDS011;9031;50.974;11.330;2023-02-04T01:05:50;0.57;;;0.57;;
17814;SDS011;9031;50.974;11.330;2023-02-04T01:08:15;0.60;;;0.60;;
17814;SDS011;9031;50.974;11.330;2023-02-04T01:10:41;0.83;;;0.83;;
17814;SDS011;9031;50.974;11.330;2023-02-04T01:13:07;0.73;;;0.73;;
17814;SDS011;9031;50.974;11.330;2023-02-04T01:15:33;0.63;;;0.63;;
17814;SDS011;9031;50.974;11.330;2023-02-04T01:17:59;0.70;;;0.70;;
17814;SDS011;9031;50.974;11.330;2023-02-04T01:20:25;0.70;;;0.70;;
17814;SDS011;9031;50.974;11.330;2023-02-04T01:22:50;0.87;;;0.87;;
17814;SDS011;9031;50.974;11.330;2023-02-04T01:25:16;0.57;;;0.57;;
17814;SDS011;9031;50.974;11.330;2023-02-04T01:27:44;0.40;;;0.40;;
17814;SDS011;9031;50.974;11.330;2023-02-04T01:30:11;0.60;;;0.60;;
17814;SDS011;9031;50.974;11.330;2023-02-04T01:32:39;0.67;;;0.67;;
17814;SDS011;9031;50.974;11.330;2023-02-04T01:35:05;0.50;;;0.50;;
17814;SDS011;9031;50.974;11.330;2023-02-04T01:37:31;0.90;;;0.90;;
17814;SDS011;9031;50.974;11.330;2023-02-04T01:39:57;0.70;;;0.70;;
17814;SDS011;9031;50.974;11.330;2023-02-04T01:42:22;0.77;;;0.77;;
17814;SDS011;9031;50.974;11.330;2023-02-04T01:44:48;0.70;;;0.70;;
17814;SDS011;9031;50.974;11.330;2023-02-04T01:47:14;0.60;;;0.60;;
17814;SDS011;9031;50.974;11.330;2023-02-04T01:49:40;0.70;;;0.70;;
17814;SDS011;9031;50.974;11.330;2023-02-04T01:52:06;0.70;;;0.70;;
17814;SDS011;9031;50.974;11.330;2023-02-04T01:54:32;0.67;;;0.67;;
17814;SDS011;9031;50.974;11.330;2023-02-04T01:56:58;0.80;;;0.80;;
17814;SDS011;9031;50.974;11.330;2023-02-04T01:59:23;0.80;;;0.80;;
17814;SDS011;9031;50.974;11.330;2023-02-04T02:01:51;0.70;;;0.70;;
17814;SDS011;9031;50.974;11.330;2023-02-04T02:04:18;0.80;;;0.80;;
17814;SDS011;9031;50.974;11.330;2023-02-04T02:06:52;0.90;;;0.90;;
17814;SDS011;9031;50.974;11.330;2023-02-04T02:09:21;0.70;;;0.70;;
17814;SDS011;9031;50.974;11.330;2023-02-04T02:11:47;0.97;;;0.97;;
17814;SDS011;9031;50.974;11.330;2023-02-04T02:14:13;0.80;;;0.80;;
17814;SDS011;9031;50.974;11.330;2023-02-04T02:16:38;1.00;;;1.00;;
17814;SDS011;9031;50.974;11.330;2023-02-04T02:19:04;0.90;;;0.90;;
17814;SDS011;9031;50.974;11.330;2023-02-04T02:21:39;0.87;;;0.87;;
17814;SDS011;9031;50.974;11.330;2023-02-04T02:24:28;0.80;;;0.80;;
17814;SDS011;9031;50.974;11.330;2023-02-04T02:26:56;1.00;;;1.00;;
17814;SDS011;9031;50.974;11.330;2023-02-04T02:29:23;1.10;;;1.10;;
17814;SDS011;9031;50.974;11.330;2023-02-04T02:31:50;0.80;;;0.80;;
17814;SDS011;9031;50.974;11.330;2023-02-04T02:34:15;0.93;;;0.93;;
17814;SDS011;9031;50.974;11.330;2023-02-04T02:36:41;0.70;;;0.70;;
17814;SDS011;9031;50.974;11.330;2023-02-04T02:39:08;0.80;;;0.80;;
17814;SDS011;9031;50.974;11.330;2023-02-04T02:41:33;0.70;;;0.70;;
17814;SDS011;9031;50.974;11.330;2023-02-04T02:43:59;0.77;;;0.77;;
17814;SDS011;9031;50.974;11.330;2023-02-04T02:46:26;0.90;;;0.90;;
17814;SDS011;9031;50.974;11.330;2023-02-04T02:48:51;0.90;;;0.90;;
17814;SDS011;9031;50.974;11.330;2023-02-04T02:51:17;0.80;;;0.80;;
17814;SDS011;9031;50.974;11.330;2023-02-04T02:53:48;0.80;;;0.80;;
17814;SDS011;9031;50.974;11.330;2023-02-04T02:56:14;0.97;;;0.97;;
17814;SDS011;9031;50.974;11.330;2023-02-04T02:58:41;0.97;;;0.97;;
17814;SDS011;9031;50.974;11.330;2023-02-04T03:01:07;0.93;;;0.93;;
17814;SDS011;9031;50.974;11.330;2023-02-04T03:03:44;0.90;;;0.90;;
17814;SDS011;9031;50.974;11.330;2023-02-04T03:06:15;1.00;;;1.00;;
17814;SDS011;9031;50.974;11.330;2023-02-04T03:08:45;0.87;;;0.87;;
17814;SDS011;9031;50.974;11.330;2023-02-04T03:11:12;0.90;;;0.90;;
17814;SDS011;9031;50.974;11.330;2023-02-04T03:13:37;1.00;;;1.00;;
17814;SDS011;9031;50.974;11.330;2023-02-04T03:16:04;0.90;;;0.90;;
17814;SDS011;9031;50.974;11.330;2023-02-04T03:18:31;1.03;;;1.03;;
17814;SDS011;9031;50.974;11.330;2023-02-04T03:20:58;1.00;;;1.00;;
17814;SDS011;9031;50.974;11.330;2023-02-04T03:23:23;1.20;;;1.20;;
17814;SDS011;9031;50.974;11.330;2023-02-04T03:25:50;0.77;;;0.77;;
17814;SDS011;9031;50.974;11.330;2023-02-04T03:28:16;0.80;;;0.80;;
17814;SDS011;9031;50.974;11.330;2023-02-04T03:30:41;0.90;;;0.90;;
17814;SDS011;9031;50.974;11.330;2023-02-04T03:33:07;1.00;;;1.00;;
17814;SDS011;9031;50.974;11.330;2023-02-04T03:35:32;0.90;;;0.90;;
17814;SDS011;9031;50.974;11.330;2023-02-04T03:37:58;1.00;;;1.00;;
17814;SDS011;9031;50.974;11.330;2023-02-04T03:40:23;0.90;;;0.90;;
17814;SDS011;9031;50.974;11.330;2023-02-04T03:42:49;0.93;;;0.93;;
17814;SDS011;9031;50.974;11.330;2023-02-04T03:45:14;1.00;;;1.00;;
17814;SDS011;9031;50.974;11.330;2023-02-04T03:47:40;1.03;;;1.03;;
17814;SDS011;9031;50.974;11.330;2023-02-04T03:50:06;1.20;;;1.20;;
17814;SDS011;9031;50.974;11.330;2023-02-04T03:52:32;0.80;;;0.80;;
17814;SDS011;9031;50.974;11.330;2023-02-04T03:54:57;0.90;;;0.90;;
17814;SDS011;9031;50.974;11.330;2023-02-04T03:57:23;0.97;;;0.97;;
17814;SDS011;9031;50.974;11.330;2023-02-04T03:59:48;1.10;;;1.10;;
17814;SDS011;9031;50.974;11.330;2023-02-04T04:02:13;0.83;;;0.83;;
17814;SDS011;9031;50.974;11.330;2023-02-04T04:04:39;1.00;;;1.00;;
17814;SDS011;9031;50.974;11.330;2023-02-04T04:07:04;0.90;;;0.90;;
17814;SDS011;9031;50.974;11.330;2023-02-04T04:09:30;1.00;;;1.00;;
17814;SDS011;9031;50.974;11.330;2023-02-04T04:11:56;1.00;;;1.00;;
17814;SDS011;9031;50.974;11.330;2023-02-04T04:14:21;1.10;;;1.10;;
17814;SDS011;9031;50.974;11.330;2023-02-04T04:16:47;1.00;;;1.00;;
17814;SDS011;9031;50.974;11.330;2023-02-04T04:19:12;0.93;;;0.93;;
17814;SDS011;9031;50.974;11.330;2023-02-04T04:21:38;1.20;;;1.20;;
17814;SDS011;9031;50.974;11.330;2023-02-04T04:24:03;1.00;;;1.00;;
17814;SDS011;9031;50.974;11.330;2023-02-04T04:26:29;1.00;;;1.00;;
17814;SDS011;9031;50.974;11.330;2023-02-04T04:28:54;1.10;;;1.10;;
17814;SDS011;9031;50.974;11.330;2023-02-04T04:31:20;1.13;;;1.13;;
17814;SDS011;9031;50.974;11.330;2023-02-04T04:33:45;1.20;;;1.20;;
17814;SDS011;9031;50.974;11.330;2023-02-04T04:36:11;1.00;;;1.00;;
17814;SDS011;9031;50.974;11.330;2023-02-04T04:38:37;1.20;;;1.20;;
17814;SDS011;9031;50.974;11.330;2023-02-04T04:41:02;1.10;;;1.10;;
17814;SDS011;9031;50.974;11.330;2023-02-04T04:43:28;1.10;;;1.10;;
17814;SDS011;9031;50.974;11.330;2023-02-04T04:45:53;0.90;;;0.90;;
17814;SDS011;9031;50.974;11.330;2023-02-04T04:48:19;1.10;;;1.10;;
17814;SDS011;9031;50.974;11.330;2023-02-04T04:50:45;1.10;;;1.10;;
17814;SDS011;9031;50.974;11.330;2023-02-04T04:53:11;1.20;;;1.20;;
17814;SDS011;9031;50.974;11.330;2023-02-04T04:55:37;0.93;;;0.93;;
17814;SDS011;9031;50.974;11.330;2023-02-04T04:58:03;1.10;;;1.10;;
17814;SDS011;9031;50.974;11.330;2023-02-04T05:00:29;1.10;;;1.10;;
17814;SDS011;9031;50.974;11.330;2023-02-04T05:02:55;1.00;;;1.00;;
17814;SDS011;9031;50.974;11.330;2023-02-04T05:05:20;1.30;;;1.30;;
17814;SDS011;9031;50.974;11.330;2023-02-04T05:07:46;0.90;;;0.90;;
17814;SDS011;9031;50.974;11.330;2023-02-04T05:10:11;1.20;;;1.20;;
17814;SDS011;9031;50.974;11.330;2023-02-04T05:12:37;1.00;;;1.00;;
17814;SDS011;9031;50.974;11.330;2023-02-04T05:15:02;1.03;;;1.03;;
17814;SDS011;9031;50.974;11.330;2023-02-04T05:17:29;1.07;;;1.07;;
17814;SDS011;9031;50.974;11.330;2023-02-04T05:19:54;1.10;;;1.10;;
17814;SDS011;9031;50.974;11.330;2023-02-04T05:22:20;1.20;;;1.20;;
17814;SDS011;9031;50.974;11.330;2023-02-04T05:24:45;1.20;;;1.20;;
17814;SDS011;9031;50.974;11.330;2023-02-04T05:27:11;1.47;;;1.47;;
17814;SDS011;9031;50.974;11.330;2023-02-04T05:29:36;1.17;;;1.17;;
17814;SDS011;9031;50.974;11.330;2023-02-04T05:32:02;0.80;;;0.80;;
17814;SDS011;9031;50.974;11.330;2023-02-04T05:34:27;1.53;;;1.53;;
17814;SDS011;9031;50.974;11.330;2023-02-04T05:36:53;1.17;;;1.17;;
17814;SDS011;9031;50.974;11.330;2023-02-04T05:39:18;0.90;;;0.90;;
17814;SDS011;9031;50.974;11.330;2023-02-04T05:41:44;0.93;;;0.93;;
17814;SDS011;9031;50.974;11.330;2023-02-04T05:44:09;1.00;;;1.00;;
17814;SDS011;9031;50.974;11.330;2023-02-04T05:46:35;0.93;;;0.93;;
17814;SDS011;9031;50.974;11.330;2023-02-04T05:49:01;0.90;;;0.90;;
17814;SDS011;9031;50.974;11.330;2023-02-04T05:51:26;0.90;;;0.90;;
17814;SDS011;9031;50.974;11.330;2023-02-04T05:53:52;0.90;;;0.90;;
17814;SDS011;9031;50.974;11.330;2023-02-04T05:56:17;0.97;;;0.97;;
17814;SDS011;9031;50.974;11.330;2023-02-04T05:58:43;0.90;;;0.90;;
17814;SDS011;9031;50.974;11.330;2023-02-04T06:01:08;0.80;;;0.80;;
17814;SDS011;9031;50.974;11.330;2023-02-04T06:03:34;0.80;;;0.80;;
17814;SDS011;9031;50.974;11.330;2023-02-04T06:05:59;1.10;;;1.10;;
17814;SDS011;9031;50.974;11.330;2023-02-04T06:08:25;0.90;;;0.90;;
17814;SDS011;9031;50.974;11.330;2023-02-04T06:10:50;0.80;;;0.80;;
17814;SDS011;9031;50.974;11.330;2023-02-04T06:13:16;0.90;;;0.90;;
17814;SDS011;9031;50.974;11.330;2023-02-04T06:15:41;0.90;;;0.90;;
17814;SDS011;9031;50.974;11.330;2023-02-04T06:18:07;1.00;;;1.00;;
17814;SDS011;9031;50.974;11.330;2023-02-04T06:20:32;0.90;;;0.90;;
17814;SDS011;9031;50.974;11.330;2023-02-04T06:22:58;0.93;;;0.93;;
17814;SDS011;9031;50.974;11.330;2023-02-04T06:25:24;0.90;;;0.90;;
17814;SDS011;9031;50.974;11.330;2023-02-04T06:27:49;0.90;;;0.90;;
17814;SDS011;9031;50.974;11.330;2023-02-04T06:30:15;1.10;;;1.10;;
17814;SDS011;9031;50.974;11.330;2023-02-04T06:32:41;0.90;;;0.90;;
17814;SDS011;9031;50.974;11.330;2023-02-04T06:35:06;0.90;;;0.90;;
17814;SDS011;9031;50.974;11.330;2023-02-04T06:37:33;1.03;;;1.03;;
17814;SDS011;9031;50.974;11.330;2023-02-04T06:39:58;0.70;;;0.70;;
17814;SDS011;9031;50.974;11.330;2023-02-04T06:42:24;1.00;;;1.00;;
17814;SDS011;9031;50.974;11.330;2023-02-04T06:44:49;1.00;;;1.00;;
17814;SDS011;9031;50.974;11.330;2023-02-04T06:47:16;0.90;;;0.90;;
17814;SDS011;9031;50.974;11.330;2023-02-04T06:49:41;1.00;;;1.00;;
17814;SDS011;9031;50.974;11.330;2023-02-04T06:52:07;1.00;;;1.00;;
17814;SDS011;9031;50.974;11.330;2023-02-04T06:54:33;0.83;;;0.83;;
17814;SDS011;9031;50.974;11.330;2023-02-04T06:56:58;1.10;;;1.10;;
17814;SDS011;9031;50.974;11.330;2023-02-04T06:59:30;1.20;;;1.20;;
17814;SDS011;9031;50.974;11.330;2023-02-04T07:02:00;1.10;;;1.10;;
17814;SDS011;9031;50.974;11.330;2023-02-04T07:04:26;0.90;;;0.90;;
17814;SDS011;9031;50.974;11.330;2023-02-04T07:06:52;0.90;;;0.90;;
17814;SDS011;9031;50.974;11.330;2023-02-04T07:09:17;0.90;;;0.90;;
17814;SDS011;9031;50.974;11.330;2023-02-04T07:11:43;1.17;;;1.17;;
17814;SDS011;9031;50.974;11.330;2023-02-04T07:14:08;1.10;;;1.10;;
17814;SDS011;9031;50.974;11.330;2023-02-04T07:16:34;1.23;;;1.23;;
17814;SDS011;9031;50.974;11.330;2023-02-04T07:19:00;1.20;;;1.20;;
17814;SDS011;9031;50.974;11.330;2023-02-04T07:21:26;1.20;;;1.20;;
17814;SDS011;9031;50.974;11.330;2023-02-04T07:23:51;1.10;;;1.10;;
17814;SDS011;9031;50.974;11.330;2023-02-04T07:26:17;1.20;;;1.20;;
17814;SDS011;9031;50.974;11.330;2023-02-04T07:28:42;1.47;;;1.47;;
17814;SDS011;9031;50.974;11.330;2023-02-04T07:31:08;1.23;;;1.23;;
17814;SDS011;9031;50.974;11.330;2023-02-04T07:33:34;1.20;;;1.20;;
17814;SDS011;9031;50.974;11.330;2023-02-04T07:36:00;1.23;;;1.23;;
17814;SDS011;9031;50.974;11.330;2023-02-04T07:38:26;1.00;;;1.00;;
17814;SDS011;9031;50.974;11.330;2023-02-04T07:40:51;1.17;;;1.17;;
17814;SDS011;9031;50.974;11.330;2023-02-04T07:43:16;1.00;;;1.00;;
17814;SDS011;9031;50.974;11.330;2023-02-04T07:45:42;1.10;;;1.10;;
17814;SDS011;9031;50.974;11.330;2023-02-04T07:48:07;1.00;;;1.00;;
17814;SDS011;9031;50.974;11.330;2023-02-04T07:50:34;1.03;;;1.03;;
17814;SDS011;9031;50.974;11.330;2023-02-04T07:53:00;1.00;;;1.00;;
17814;SDS011;9031;50.974;11.330;2023-02-04T07:55:26;1.30;;;1.30;;
17814;SDS011;9031;50.974;11.330;2023-02-04T07:57:52;1.20;;;1.20;;
17814;SDS011;9031;50.974;11.330;2023-02-04T08:00:18;1.40;;;1.40;;
17814;SDS011;9031;50.974;11.330;2023-02-04T08:02:44;0.90;;;0.90;;
17814;SDS011;9031;50.974;11.330;2023-02-04T08:05:09;1.30;;;1.30;;
17814;SDS011;9031;50.974;11.330;2023-02-04T08:07:35;1.00;;;1.00;;
17814;SDS011;9031;50.974;11.330;2023-02-04T08:10:01;1.00;;;1.00;;
17814;SDS011;9031;50.974;11.330;2023-02-04T08:12:28;0.97;;;0.97;;
17814;SDS011;9031;50.974;11.330;2023-02-04T08:14:54;0.90;;;0.90;;
17814;SDS011;9031;50.974;11.330;2023-02-04T08:17:19;0.83;;;0.83;;
17814;SDS011;9031;50.974;11.330;2023-02-04T08:19:45;0.70;;;0.70;;
17814;SDS011;9031;50.974;11.330;2023-02-04T08:22:11;0.80;;;0.80;;
17814;SDS011;9031;50.974;11.330;2023-02-04T08:24:36;0.73;;;0.73;;
17814;SDS011;9031;50.974;11.330;2023-02-04T08:27:02;0.73;;;0.73;;
17814;SDS011;9031;50.974;11.330;2023-02-04T08:29:27;0.73;;;0.73;;
17814;SDS011;9031;50.974;11.330;2023-02-04T08:31:53;0.90;;;0.90;;
17814;SDS011;9031;50.974;11.330;2023-02-04T08:34:18;0.80;;;0.80;;
17814;SDS011;9031;50.974;11.330;2023-02-04T08:36:44;0.80;;;0.80;;
17814;SDS011;9031;50.974;11.330;2023-02-04T08:39:10;0.80;;;0.80;;
17814;SDS011;9031;50.974;11.330;2023-02-04T08:41:36;0.70;;;0.70;;
17814;SDS011;9031;50.974;11.330;2023-02-04T08:44:02;0.70;;;0.70;;
17814;SDS011;9031;50.974;11.330;2023-02-04T08:46:28;0.70;;;0.70;;
17814;SDS011;9031;50.974;11.330;2023-02-04T08:48:53;0.70;;;0.70;;
17814;SDS011;9031;50.974;11.330;2023-02-04T08:51:19;0.80;;;0.80;;
17814;SDS011;9031;50.974;11.330;2023-02-04T08:53:45;0.70;;;0.70;;
17814;SDS011;9031;50.974;11.330;2023-02-04T08:56:10;0.77;;;0.77;;
17814;SDS011;9031;50.974;11.330;2023-02-04T08:58:40;0.70;;;0.70;;
17814;SDS011;9031;50.974;11.330;2023-02-04T09:01:06;0.80;;;0.80;;
17814;SDS011;9031;50.974;11.330;2023-02-04T09:03:31;0.90;;;0.90;;
17814;SDS011;9031;50.974;11.330;2023-02-04T09:05:57;0.90;;;0.90;;
17814;SDS011;9031;50.974;11.330;2023-02-04T09:08:22;0.80;;;0.80;;
17814;SDS011;9031;50.974;11.330;2023-02-04T09:10:48;0.60;;;0.60;;
17814;SDS011;9031;50.974;11.330;2023-02-04T09:13:13;0.63;;;0.63;;
17814;SDS011;9031;50.974;11.330;2023-02-04T09:15:39;0.70;;;0.70;;
17814;SDS011;9031;50.974;11.330;2023-02-04T09:18:05;0.60;;;0.60;;
17814;SDS011;9031;50.974;11.330;2023-02-04T09:20:35;0.57;;;0.57;;
17814;SDS011;9031;50.974;11.330;2023-02-04T09:23:03;0.60;;;0.60;;
17814;SDS011;9031;50.974;11.330;2023-02-04T09:25:32;1.33;;;1.33;;
17814;SDS011;9031;50.974;11.330;2023-02-04T09:27:58;0.60;;;0.60;;
17814;SDS011;9031;50.974;11.330;2023-02-04T09:30:24;0.60;;;0.60;;
17814;SDS011;9031;50.974;11.330;2023-02-04T09:32:49;0.63;;;0.63;;
17814;SDS011;9031;50.974;11.330;2023-02-04T09:35:15;0.60;;;0.60;;
17814;SDS011;9031;50.974;11.330;2023-02-04T09:37:40;0.60;;;0.60;;
17814;SDS011;9031;50.974;11.330;2023-02-04T09:40:06;0.40;;;0.40;;
17814;SDS011;9031;50.974;11.330;2023-02-04T09:42:33;0.57;;;0.57;;
17814;SDS011;9031;50.974;11.330;2023-02-04T09:44:59;0.50;;;0.50;;
17814;SDS011;9031;50.974;11.330;2023-02-04T09:47:27;0.60;;;0.60;;
17814;SDS011;9031;50.974;11.330;2023-02-04T09:49:53;0.53;;;0.53;;
17814;SDS011;9031;50.974;11.330;2023-02-04T09:52:18;0.60;;;0.60;;
17814;SDS011;9031;50.974;11.330;2023-02-04T09:54:45;0.63;;;0.63;;
17814;SDS011;9031;50.974;11.330;2023-02-04T09:57:14;0.30;;;0.30;;
17814;SDS011;9031;50.974;11.330;2023-02-04T09:59:45;0.40;;;0.40;;
17814;SDS011;9031;50.974;11.330;2023-02-04T10:02:21;0.20;;;0.20;;
17814;SDS011;9031;50.974;11.330;2023-02-04T10:04:49;0.10;;;0.10;;
17814;SDS011;9031;50.974;11.330;2023-02-04T10:07:17;0.10;;;0.10;;
17814;SDS011;9031;50.974;11.330;2023-02-04T10:09:46;0.10;;;0.10;;
17814;SDS011;9031;50.974;11.330;2023-02-04T10:12:13;0.10;;;0.10;;
17814;SDS011;9031;50.974;11.330;2023-02-04T10:14:38;0.20;;;0.20;;
17814;SDS011;9031;50.974;11.330;2023-02-04T10:17:04;0.27;;;0.27;;
17814;SDS011;9031;50.974;11.330;2023-02-04T10:19:30;0.30;;;0.30;;
17814;SDS011;9031;50.974;11.330;2023-02-04T10:21:55;0.20;;;0.20;;
17814;SDS011;9031;50.974;11.330;2023-02-04T10:24:21;0.50;;;0.50;;
17814;SDS011;9031;50.974;11.330;2023-02-04T10:26:53;0.40;;;0.40;;
17814;SDS011;9031;50.974;11.330;2023-02-04T10:29:30;0.50;;;0.50;;
17814;SDS011;9031;50.974;11.330;2023-02-04T10:31:56;0.70;;;0.70;;
17814;SDS011;9031;50.974;11.330;2023-02-04T10:34:22;0.40;;;0.40;;
17814;SDS011;9031;50.974;11.330;2023-02-04T10:36:57;0.53;;;0.53;;
17814;SDS011;9031;50.974;11.330;2023-02-04T10:39:26;0.70;;;0.70;;
17814;SDS011;9031;50.974;11.330;2023-02-04T10:41:57;0.30;;;0.30;;
17814;SDS011;9031;50.974;11.330;2023-02-04T10:44:28;0.50;;;0.50;;
17814;SDS011;9031;50.974;11.330;2023-02-04T10:47:01;0.97;;;0.97;;
17814;SDS011;9031;50.974;11.330;2023-02-04T10:49:29;0.40;;;0.40;;
17814;SDS011;9031;50.974;11.330;2023-02-04T10:51:55;0.30;;;0.30;;
17814;SDS011;9031;50.974;11.330;2023-02-04T10:54:21;0.40;;;0.40;;
17814;SDS011;9031;50.974;11.330;2023-02-04T10:56:55;0.40;;;0.40;;
17814;SDS011;9031;50.974;11.330;2023-02-04T10:59:22;0.40;;;0.40;;
17814;SDS011;9031;50.974;11.330;2023-02-04T11:01:51;0.30;;;0.30;;
17814;SDS011;9031;50.974;11.330;2023-02-04T11:04:21;0.30;;;0.30;;
17814;SDS011;9031;50.974;11.330;2023-02-04T11:06:47;0.40;;;0.40;;
17814;SDS011;9031;50.974;11.330;2023-02-04T11:09:14;0.40;;;0.40;;
17814;SDS011;9031;50.974;11.330;2023-02-04T11:11:46;0.50;;;0.50;;
17814;SDS011;9031;50.974;11.330;2023-02-04T11:14:32;0.40;;;0.40;;
17814;SDS011;9031;50.974;11.330;2023-02-04T11:16:57;0.50;;;0.50;;
17814;SDS011;9031;50.974;11.330;2023-02-04T11:19:33;0.50;;;0.50;;
17814;SDS011;9031;50.974;11.330;2023-02-04T11:22:07;0.43;;;0.43;;
17814;SDS011;9031;50.974;11.330;2023-02-04T11:24:45;0.60;;;0.60;;
17814;SDS011;9031;50.974;11.330;2023-02-04T11:27:19;0.60;;;0.60;;
17814;SDS011;9031;50.974;11.330;2023-02-04T11:29:46;0.50;;;0.50;;
17814;SDS011;9031;50.974;11.330;2023-02-04T11:32:25;0.50;;;0.50;;
17814;SDS011;9031;50.974;11.330;2023-02-04T11:37:38;0.50;;;0.50;;
17814;SDS011;9031;50.974;11.330;2023-02-04T11:40:47;0.67;;;0.67;;
17814;SDS011;9031;50.974;11.330;2023-02-04T11:42:57;0.40;;;0.40;;
17814;SDS011;9031;50.974;11.330;2023-02-04T11:45:34;0.40;;;0.40;;
17814;SDS011;9031;50.974;11.330;2023-02-04T11:48:02;0.50;;;0.50;;
17814;SDS011;9031;50.974;11.330;2023-02-04T11:50:36;0.40;;;0.40;;
17814;SDS011;9031;50.974;11.330;2023-02-04T11:53:02;0.10;;;0.10;;
17814;SDS011;9031;50.974;11.330;2023-02-04T11:55:29;0.20;;;0.20;;
17814;SDS011;9031;50.974;11.330;2023-02-04T11:57:55;0.10;;;0.10;;
17814;SDS011;9031;50.974;11.330;2023-02-04T12:00:25;0.07;;;0.07;;
17814;SDS011;9031;50.974;11.330;2023-02-04T12:02:55;0.00;;;0.00;;
17814;SDS011;9031;50.974;11.330;2023-02-04T12:05:35;0.00;;;0.00;;
17814;SDS011;9031;50.974;11.330;2023-02-04T12:08:10;0.00;;;0.00;;
17814;SDS011;9031;50.974;11.330;2023-02-04T12:10:49;0.00;;;0.00;;
17814;SDS011;9031;50.974;11.330;2023-02-04T12:13:23;0.47;;;0.23;;
17814;SDS011;9031;50.974;11.330;2023-02-04T12:16:04;0.00;;;0.00;;
17814;SDS011;9031;50.974;11.330;2023-02-04T12:18:31;0.00;;;0.00;;
17814;SDS011;9031;50.974;11.330;2023-02-04T12:20:59;0.37;;;0.37;;
17814;SDS011;9031;50.974;11.330;2023-02-04T12:23:26;0.00;;;0.00;;
17814;SDS011;9031;50.974;11.330;2023-02-04T12:25:53;0.00;;;0.00;;
17814;SDS011;9031;50.974;11.330;2023-02-04T12:28:19;0.00;;;0.00;;
17814;SDS011;9031;50.974;11.330;2023-02-04T12:30:44;0.00;;;0.00;;
17814;SDS011;9031;50.974;11.330;2023-02-04T12:33:10;0.10;;;0.10;;
17814;SDS011;9031;50.974;11.330;2023-02-04T12:35:36;0.00;;;0.00;;
17814;SDS011;9031;50.974;11.330;2023-02-04T12:38:01;0.00;;;0.00;;
17814;SDS011;9031;50.974;11.330;2023-02-04T12:40:27;0.00;;;0.00;;
17814;SDS011;9031;50.974;11.330;2023-02-04T12:42:53;0.10;;;0.10;;
17814;SDS011;9031;50.974;11.330;2023-02-04T12:45:19;0.00;;;0.00;;
17814;SDS011;9031;50.974;11.330;2023-02-04T12:47:44;0.10;;;0.10;;
17814;SDS011;9031;50.974;11.330;2023-02-04T12:50:11;0.10;;;0.10;;
17814;SDS011;9031;50.974;11.330;2023-02-04T12:52:38;0.23;;;0.23;;
17814;SDS011;9031;50.974;11.330;2023-02-04T12:55:04;0.30;;;0.30;;
17814;SDS011;9031;50.974;11.330;2023-02-04T12:57:32;0.30;;;0.30;;
17814;SDS011;9031;50.974;11.330;2023-02-04T12:59:58;0.30;;;0.30;;
17814;SDS011;9031;50.974;11.330;2023-02-04T13:02:25;0.50;;;0.50;;
17814;SDS011;9031;50.974;11.330;2023-02-04T13:04:51;0.40;;;0.40;;
17814;SDS011;9031;50.974;11.330;2023-02-04T13:07:17;0.40;;;0.40;;
17814;SDS011;9031;50.974;11.330;2023-02-04T13:09:42;0.70;;;0.70;;
17814;SDS011;9031;50.974;11.330;2023-02-04T13:12:11;0.40;;;0.40;;
17814;SDS011;9031;50.974;11.330;2023-02-04T13:14:42;0.40;;;0.40;;
17814;SDS011;9031;50.974;11.330;2023-02-04T13:17:08;0.60;;;0.60;;
17814;SDS011;9031;50.974;11.330;2023-02-04T13:19:34;0.50;;;0.50;;
17814;SDS011;9031;50.974;11.330;2023-02-04T13:22:00;0.43;;;0.43;;
17814;SDS011;9031;50.974;11.330;2023-02-04T13:24:26;0.50;;;0.50;;
17814;SDS011;9031;50.974;11.330;2023-02-04T13:26:52;0.53;;;0.53;;
17814;SDS011;9031;50.974;11.330;2023-02-04T13:29:17;0.50;;;0.50;;
17814;SDS011;9031;50.974;11.330;2023-02-04T13:31:43;0.50;;;0.50;;
17814;SDS011;9031;50.974;11.330;2023-02-04T13:34:09;0.67;;;0.67;;
17814;SDS011;9031;50.974;11.330;2023-02-04T13:36:34;1.00;;;1.00;;
17814;SDS011;9031;50.974;11.330;2023-02-04T13:39:00;0.60;;;0.60;;
17814;SDS011;9031;50.974;11.330;2023-02-04T13:41:26;0.53;;;0.53;;
17814;SDS011;9031;50.974;11.330;2023-02-04T13:43:52;0.60;;;0.60;;
17814;SDS011;9031;50.974;11.330;2023-02-04T13:46:18;0.60;;;0.60;;
17814;SDS011;9031;50.974;11.330;2023-02-04T13:48:44;0.40;;;0.40;;
17814;SDS011;9031;50.974;11.330;2023-02-04T13:51:10;0.60;;;0.60;;
17814;SDS011;9031;50.974;11.330;2023-02-04T13:53:35;0.40;;;0.40;;
17814;SDS011;9031;50.974;11.330;2023-02-04T13:56:01;0.50;;;0.50;;
17814;SDS011;9031;50.974;11.330;2023-02-04T13:58:26;1.50;;;1.47;;
17814;SDS011;9031;50.974;11.330;2023-02-04T14:00:52;0.50;;;0.50;;
17814;SDS011;9031;50.974;11.330;2023-02-04T14:03:21;0.40;;;0.40;;
17814;SDS011;9031;50.974;11.330;2023-02-04T14:05:48;0.67;;;0.67;;
17814;SDS011;9031;50.974;11.330;2023-02-04T14:08:14;0.77;;;0.77;;
17814;SDS011;9031;50.974;11.330;2023-02-04T14:10:39;2.60;;;2.50;;
17814;SDS011;9031;50.974;11.330;2023-02-04T14:13:05;0.60;;;0.60;;
17814;SDS011;9031;50.974;11.330;2023-02-04T14:15:31;0.50;;;0.50;;
17814;SDS011;9031;50.974;11.330;2023-02-04T14:17:58;0.77;;;0.77;;
17814;SDS011;9031;50.974;11.330;2023-02-04T14:20:24;0.50;;;0.50;;
17814;SDS011;9031;50.974;11.330;2023-02-04T14:22:50;0.70;;;0.70;;
17814;SDS011;9031;50.974;11.330;2023-02-04T14:25:15;0.60;;;0.60;;
17814;SDS011;9031;50.974;11.330;2023-02-04T14:27:41;0.50;;;0.50;;
17814;SDS011;9031;50.974;11.330;2023-02-04T14:30:09;0.50;;;0.50;;
17814;SDS011;9031;50.974;11.330;2023-02-04T14:32:44;0.50;;;0.50;;
17814;SDS011;9031;50.974;11.330;2023-02-04T14:35:10;0.70;;;0.70;;
17814;SDS011;9031;50.974;11.330;2023-02-04T14:37:36;0.53;;;0.53;;
17814;SDS011;9031;50.974;11.330;2023-02-04T14:40:02;0.70;;;0.70;;
17814;SDS011;9031;50.974;11.330;2023-02-04T14:42:28;0.70;;;0.70;;
17814;SDS011;9031;50.974;11.330;2023-02-04T14:44:53;0.70;;;0.70;;
17814;SDS011;9031;50.974;11.330;2023-02-04T14:47:19;0.60;;;0.60;;